Time;durP1;ratioP1;P1;durP2;ratioP2;P2;SDS_P1;SDS_P2;PMS_P1;PMS_P2;Temp;Humidity;BMP_temperature;BMP_pressure;BME280_temperature;BME280_humidity;BME280_pressure;Samples;Min_cycle;Max_cycle;Signal;HPM_P1;HPM_P2
2021/08/27 00:00:13;;;;;;;4.80;1.23;;;;;;;;;;5056113;28;20039;-78
2021/08/27 00:02:40;;;;;;;8.05;1.25;;;;;;;;;;5056207;28;20029;-78
2021/08/27 00:05:06;;;;;;;9.15;1.83;;;;;;;;;;5055964;28;20098;-79
2021/08/27 00:07:33;;;;;;;13.35;2.28;;;;;;;;;;5034561;28;20034;-78
2021/08/27 00:09:58;;;;;;;15.27;3.55;;;;;;;;;;5019790;28;20069;-78
2021/08/27 00:12:26;;;;;;;8.07;1.65;;;;;;;;;;5035627;28;20049;-80
2021/08/27 00:14:51;;;;;;;8.65;2.05;;;;;;;;;;5035495;28;20030;-78
2021/08/27 00:17:18;;;;;;;8.27;1.90;;;;;;;;;;5035062;28;20037;-78
2021/08/27 00:19:43;;;;;;;4.88;1.50;;;;;;;;;;5035583;28;20041;-78
2021/08/27 00:22:11;;;;;;;7.05;2.17;;;;;;;;;;5019384;28;20044;-78
2021/08/27 00:24:36;;;;;;;6.18;1.50;;;;;;;;;;5035906;28;20123;-79
2021/08/27 00:27:04;;;;;;;6.68;1.50;;;;;;;;;;5035311;28;20061;-78
2021/08/27 00:29:29;;;;;;;7.22;2.00;;;;;;;;;;5034550;28;20059;-78
2021/08/27 00:31:57;;;;;;;11.52;1.63;;;;;;;;;;5018775;28;20041;-78
2021/08/27 00:34:22;;;;;;;7.40;1.55;;;;;;;;;;5018928;28;20029;-78
2021/08/27 00:36:49;;;;;;;9.00;1.58;;;;;;;;;;5019551;28;20044;-78
2021/08/27 00:39:15;;;;;;;5.07;1.08;;;;;;;;;;5047150;28;20036;-78
2021/08/27 00:41:42;;;;;;;5.03;1.40;;;;;;;;;;5039964;28;20486;-79
2021/08/27 00:44:08;;;;;;;6.97;1.27;;;;;;;;;;5038619;28;20045;-79
2021/08/27 00:46:35;;;;;;;4.10;1.17;;;;;;;;;;5056096;28;20037;-78
2021/08/27 00:49:00;;;;;;;3.20;1.10;;;;;;;;;;5039158;28;20033;-78
2021/08/27 00:51:26;;;;;;;5.00;1.23;;;;;;;;;;5039721;28;20047;-79
2021/08/27 00:53:52;;;;;;;10.73;1.40;;;;;;;;;;5038160;28;20040;-78
2021/08/27 00:56:21;;;;;;;8.85;1.48;;;;;;;;;;5038659;28;20033;-79
2021/08/27 00:58:46;;;;;;;9.10;1.60;;;;;;;;;;5055482;28;20380;-78
2021/08/27 01:01:14;;;;;;;6.57;1.40;;;;;;;;;;5054883;28;20037;-79
2021/08/27 01:03:40;;;;;;;6.35;1.40;;;;;;;;;;5055146;28;20075;-78
2021/08/27 01:06:21;;;;;;;3.05;1.13;;;;;;;;;;5055436;28;20540;-78
2021/08/27 01:09:00;;;;;;;7.05;1.65;;;;;;;;;;5061699;28;20072;-80
2021/08/27 01:11:37;;;;;;;12.93;2.22;;;;;;;;;;5057847;28;20127;-78
2021/08/27 01:14:07;;;;;;;11.65;2.38;;;;;;;;;;5063975;28;20029;-79
2021/08/27 01:16:58;;;;;;;11.77;1.90;;;;;;;;;;5038696;28;20060;-79
2021/08/27 01:19:49;;;;;;;9.52;2.00;;;;;;;;;;5037739;28;20120;-79
2021/08/27 01:22:23;;;;;;;15.82;2.40;;;;;;;;;;5038441;28;20032;-79
2021/08/27 01:24:50;;;;;;;5.65;2.03;;;;;;;;;;5055551;28;20033;-79
2021/08/27 01:27:18;;;;;;;11.65;1.90;;;;;;;;;;5038912;28;20037;-80
2021/08/27 01:29:55;;;;;;;9.05;2.17;;;;;;;;;;5039152;28;20123;-78
2021/08/27 01:32:40;;;;;;;18.02;3.10;;;;;;;;;;5039175;28;20403;-78
2021/08/27 01:35:10;;;;;;;9.15;2.65;;;;;;;;;;5054956;28;20487;-80
2021/08/27 01:37:38;;;;;;;13.23;2.40;;;;;;;;;;5039062;28;20071;-79
2021/08/27 01:40:07;;;;;;;7.82;2.60;;;;;;;;;;5046955;28;20032;-79
2021/08/27 01:42:34;;;;;;;9.73;2.60;;;;;;;;;;5057804;28;20025;-78
2021/08/27 01:45:00;;;;;;;14.75;2.38;;;;;;;;;;5059666;28;20070;-79
2021/08/27 01:47:32;;;;;;;10.02;2.75;;;;;;;;;;5075478;28;20052;-79
2021/08/27 01:50:00;;;;;;;9.93;2.33;;;;;;;;;;5076036;28;20029;-79
2021/08/27 01:52:28;;;;;;;10.98;2.47;;;;;;;;;;5074382;28;20039;-80
2021/08/27 01:54:56;;;;;;;13.02;2.67;;;;;;;;;;5057895;28;20693;-78
2021/08/27 01:57:22;;;;;;;14.25;3.28;;;;;;;;;;5077251;28;20028;-79
2021/08/27 01:59:48;;;;;;;10.38;2.70;;;;;;;;;;5061634;28;20036;-79
2021/08/27 02:02:16;;;;;;;11.23;2.40;;;;;;;;;;5078107;28;20040;-78
2021/08/27 02:04:54;;;;;;;11.23;2.35;;;;;;;;;;5060786;28;20032;-79
2021/08/27 02:07:22;;;;;;;6.72;2.42;;;;;;;;;;5079078;28;20025;-80
2021/08/27 02:09:52;;;;;;;7.53;2.60;;;;;;;;;;5071110;28;20044;-79
2021/08/27 02:12:19;;;;;;;12.50;2.92;;;;;;;;;;5035070;28;20510;-80
2021/08/27 02:14:49;;;;;;;14.48;2.90;;;;;;;;;;5038090;28;20043;-79
2021/08/27 02:17:14;;;;;;;14.25;3.35;;;;;;;;;;5020834;28;20483;-79
2021/08/27 02:19:40;;;;;;;16.92;2.75;;;;;;;;;;5020940;28;20079;-80
2021/08/27 02:22:12;;;;;;;16.35;2.75;;;;;;;;;;5037604;28;20034;-78
2021/08/27 02:24:45;;;;;;;16.08;2.88;;;;;;;;;;5020981;28;20037;-78
2021/08/27 02:27:12;;;;;;;9.98;3.67;;;;;;;;;;5020694;28;20073;-78
2021/08/27 02:29:41;;;;;;;10.45;2.53;;;;;;;;;;5036849;28;20052;-79
2021/08/27 02:32:11;;;;;;;15.48;2.83;;;;;;;;;;5035913;28;20053;-78
2021/08/27 02:34:43;;;;;;;11.18;2.78;;;;;;;;;;5019512;28;20037;-79
2021/08/27 02:37:13;;;;;;;14.50;2.55;;;;;;;;;;5019520;28;20097;-78
2021/08/27 02:39:38;;;;;;;13.98;3.28;;;;;;;;;;5056515;28;20037;-78
2021/08/27 02:42:06;;;;;;;9.02;3.00;;;;;;;;;;5039939;28;20044;-79
2021/08/27 02:44:32;;;;;;;13.68;3.15;;;;;;;;;;5057160;28;20049;-78
2021/08/27 02:46:59;;;;;;;12.25;3.33;;;;;;;;;;5051322;28;20032;-77
2021/08/27 02:49:24;;;;;;;21.58;3.25;;;;;;;;;;5035744;28;20045;-79
2021/08/27 02:52:18;;;;;;;9.32;3.08;;;;;;;;;;5019435;28;20033;-77
2021/08/27 02:54:56;;;;;;;10.48;2.42;;;;;;;;;;5035141;28;20057;-79
2021/08/27 02:57:25;;;;;;;12.73;3.88;;;;;;;;;;5035773;28;20037;-77
2021/08/27 02:59:54;;;;;;;13.27;2.97;;;;;;;;;;5019218;28;20116;-77
2021/08/27 03:02:23;;;;;;;13.63;3.00;;;;;;;;;;5035610;28;20038;-77
2021/08/27 03:05:06;;;;;;;10.68;2.60;;;;;;;;;;5019179;28;20502;-77
2021/08/27 03:07:38;;;;;;;16.83;3.10;;;;;;;;;;5018245;28;20034;-77
2021/08/27 03:10:19;;;;;;;12.90;3.22;;;;;;;;;;5018966;28;20399;-77
2021/08/27 03:12:56;;;;;;;11.95;3.40;;;;;;;;;;5034526;28;20067;-77
2021/08/27 03:15:33;;;;;;;15.60;3.88;;;;;;;;;;5035196;28;20047;-77
2021/08/27 03:18:13;;;;;;;18.38;3.63;;;;;;;;;;5019075;28;20582;-78
2021/08/27 03:20:45;;;;;;;8.23;3.03;;;;;;;;;;5035060;28;20487;-77
2021/08/27 03:23:15;;;;;;;17.60;3.28;;;;;;;;;;5018809;28;20037;-77
2021/08/27 03:25:45;;;;;;;7.88;3.22;;;;;;;;;;5018395;28;20124;-77
2021/08/27 03:28:18;;;;;;;15.07;3.42;;;;;;;;;;5018694;28;20052;-78
2021/08/27 03:30:52;;;;;;;11.57;3.90;;;;;;;;;;5035620;28;20053;-77
2021/08/27 03:33:21;;;;;;;13.35;4.03;;;;;;;;;;5018468;28;20041;-77
2021/08/27 03:35:52;;;;;;;15.27;3.55;;;;;;;;;;5035913;28;20033;-78
2021/08/27 03:38:19;;;;;;;12.15;3.78;;;;;;;;;;5034983;28;20037;-77
2021/08/27 03:40:50;;;;;;;11.00;3.75;;;;;;;;;;5026088;28;20028;-77
2021/08/27 03:43:16;;;;;;;13.45;4.00;;;;;;;;;;5054921;28;20032;-78
2021/08/27 03:45:45;;;;;;;11.70;3.40;;;;;;;;;;5054512;28;20048;-77
2021/08/27 03:48:11;;;;;;;13.30;4.05;;;;;;;;;;5054808;28;20032;-78
2021/08/27 03:50:37;;;;;;;13.05;4.05;;;;;;;;;;5037306;28;20033;-78
2021/08/27 03:53:06;;;;;;;9.60;3.17;;;;;;;;;;5054045;28;20032;-80
2021/08/27 03:55:31;;;;;;;16.52;5.10;;;;;;;;;;5037965;28;20041;-77
2021/08/27 03:58:00;;;;;;;8.38;3.70;;;;;;;;;;5054448;28;20043;-77
2021/08/27 04:00:27;;;;;;;9.75;3.67;;;;;;;;;;5038116;28;20475;-77
2021/08/27 04:02:54;;;;;;;10.60;4.65;;;;;;;;;;5054128;28;20461;-78
2021/08/27 04:05:23;;;;;;;9.98;3.55;;;;;;;;;;5037557;28;20033;-77
2021/08/27 04:07:50;;;;;;;16.13;4.22;;;;;;;;;;5053663;28;20036;-78
2021/08/27 04:10:19;;;;;;;13.05;3.90;;;;;;;;;;5033766;28;20555;-77
2021/08/27 04:12:47;;;;;;;11.70;3.72;;;;;;;;;;5034269;28;20509;-77
2021/08/27 04:15:14;;;;;;;15.73;4.50;;;;;;;;;;5023298;28;20087;-78
2021/08/27 04:17:40;;;;;;;11.73;3.83;;;;;;;;;;5033791;28;20021;-78
2021/08/27 04:20:09;;;;;;;15.20;4.22;;;;;;;;;;5033119;28;20550;-77
2021/08/27 04:22:36;;;;;;;8.43;3.75;;;;;;;;;;5017249;28;20030;-78
2021/08/27 04:25:04;;;;;;;9.85;4.60;;;;;;;;;;5034572;28;20029;-77
2021/08/27 04:27:30;;;;;;;12.98;3.85;;;;;;;;;;5033865;28;20037;-78
2021/08/27 04:29:56;;;;;;;9.00;3.50;;;;;;;;;;5033282;28;20025;-78
2021/08/27 04:32:23;;;;;;;11.27;4.00;;;;;;;;;;5033157;28;20045;-77
2021/08/27 04:34:49;;;;;;;12.45;3.63;;;;;;;;;;5016276;28;20103;-77
2021/08/27 04:37:16;;;;;;;9.68;3.75;;;;;;;;;;5016179;28;20037;-77
2021/08/27 04:39:41;;;;;;;10.23;3.50;;;;;;;;;;5032829;28;20045;-77
2021/08/27 04:42:07;;;;;;;12.20;4.03;;;;;;;;;;5037048;28;20043;-78
2021/08/27 04:44:35;;;;;;;9.85;3.70;;;;;;;;;;5036650;28;20111;-77
2021/08/27 04:47:02;;;;;;;13.15;3.28;;;;;;;;;;5036234;28;20040;-77
2021/08/27 04:49:28;;;;;;;19.98;4.43;;;;;;;;;;5053208;28;20102;-77
2021/08/27 04:51:53;;;;;;;9.45;3.40;;;;;;;;;;5036417;28;20491;-77
2021/08/27 04:54:22;;;;;;;10.02;3.30;;;;;;;;;;5053782;28;20033;-77
2021/08/27 04:56:47;;;;;;;10.02;3.45;;;;;;;;;;5053164;28;20037;-77
2021/08/27 04:59:13;;;;;;;9.82;3.53;;;;;;;;;;5053188;28;20407;-78
2021/08/27 05:01:41;;;;;;;5.57;2.90;;;;;;;;;;5036589;28;20032;-78
2021/08/27 05:04:06;;;;;;;14.07;3.65;;;;;;;;;;5053134;28;20037;-77
2021/08/27 05:06:32;;;;;;;7.65;3.33;;;;;;;;;;5036611;28;20101;-77
2021/08/27 05:08:57;;;;;;;9.88;3.70;;;;;;;;;;5036221;28;20065;-77
2021/08/27 05:11:23;;;;;;;9.70;3.15;;;;;;;;;;5036327;28;20410;-77
2021/08/27 05:13:48;;;;;;;11.15;3.55;;;;;;;;;;5054023;28;20025;-77
2021/08/27 05:16:13;;;;;;;11.05;4.25;;;;;;;;;;5052531;28;20064;-77
2021/08/27 05:18:40;;;;;;;13.05;3.60;;;;;;;;;;5036197;28;20025;-77
2021/08/27 05:21:05;;;;;;;7.03;3.10;;;;;;;;;;5036222;28;20029;-77
2021/08/27 05:23:32;;;;;;;8.25;3.22;;;;;;;;;;5052780;28;20048;-77
2021/08/27 05:25:58;;;;;;;11.23;3.58;;;;;;;;;;5065073;28;20389;-77
2021/08/27 05:28:25;;;;;;;11.93;4.07;;;;;;;;;;5072518;28;20047;-77
2021/08/27 05:30:52;;;;;;;12.30;3.42;;;;;;;;;;5055917;28;20048;-77
2021/08/27 05:33:17;;;;;;;11.48;4.20;;;;;;;;;;5059077;28;20607;-76
2021/08/27 05:35:44;;;;;;;8.88;2.97;;;;;;;;;;5075946;28;20102;-77
2021/08/27 05:38:11;;;;;;;7.65;2.90;;;;;;;;;;5048396;28;20086;-77
2021/08/27 05:40:37;;;;;;;8.55;2.97;;;;;;;;;;5057303;28;20037;-77
2021/08/27 05:43:03;;;;;;;17.00;4.30;;;;;;;;;;5055567;28;20040;-77
2021/08/27 05:45:30;;;;;;;13.63;3.22;;;;;;;;;;5039417;28;20041;-77
2021/08/27 05:47:56;;;;;;;9.13;3.42;;;;;;;;;;5038772;28;20041;-77
2021/08/27 05:50:24;;;;;;;10.38;3.28;;;;;;;;;;5055087;28;20041;-77
2021/08/27 05:52:49;;;;;;;7.90;3.20;;;;;;;;;;5055763;28;20037;-77
2021/08/27 05:55:17;;;;;;;7.40;3.45;;;;;;;;;;5038637;28;20043;-77
2021/08/27 05:57:43;;;;;;;10.75;3.30;;;;;;;;;;5038980;28;20039;-77
2021/08/27 06:00:09;;;;;;;8.13;3.15;;;;;;;;;;5054313;28;20029;-77
2021/08/27 06:02:36;;;;;;;8.20;2.95;;;;;;;;;;5054624;28;20128;-77
2021/08/27 06:05:01;;;;;;;8.13;2.90;;;;;;;;;;5055602;28;20028;-77
2021/08/27 06:07:29;;;;;;;7.85;3.10;;;;;;;;;;5054733;28;20037;-77
2021/08/27 06:09:55;;;;;;;8.55;2.92;;;;;;;;;;5055059;28;20040;-77
2021/08/27 06:12:21;;;;;;;9.70;3.30;;;;;;;;;;5054067;28;20037;-78
2021/08/27 06:14:46;;;;;;;12.45;3.15;;;;;;;;;;5055070;28;20037;-77
2021/08/27 06:17:14;;;;;;;4.75;2.38;;;;;;;;;;5038358;28;20037;-77
2021/08/27 06:19:39;;;;;;;7.47;3.10;;;;;;;;;;5056234;28;20043;-77
2021/08/27 06:22:05;;;;;;;11.25;3.40;;;;;;;;;;5054758;28;20037;-78
2021/08/27 06:24:31;;;;;;;14.73;2.88;;;;;;;;;;5038539;28;20025;-77
2021/08/27 06:26:57;;;;;;;11.05;2.58;;;;;;;;;;5056489;28;20043;-77
2021/08/27 06:29:24;;;;;;;7.05;2.40;;;;;;;;;;5038902;28;20383;-77
2021/08/27 06:31:51;;;;;;;10.85;3.40;;;;;;;;;;5055129;28;20099;-78
2021/08/27 06:34:19;;;;;;;8.45;2.72;;;;;;;;;;5038142;28;20033;-77
2021/08/27 06:36:46;;;;;;;6.40;2.75;;;;;;;;;;5039019;28;20033;-77
2021/08/27 06:39:11;;;;;;;10.25;2.72;;;;;;;;;;5057385;28;20044;-77
2021/08/27 06:41:38;;;;;;;9.23;2.83;;;;;;;;;;5040009;28;20044;-78
2021/08/27 06:44:05;;;;;;;8.10;2.80;;;;;;;;;;5044250;28;20096;-79
2021/08/27 06:46:32;;;;;;;12.43;3.05;;;;;;;;;;5044940;28;20083;-79
2021/08/27 06:48:57;;;;;;;5.60;2.60;;;;;;;;;;5055475;28;20033;-77
2021/08/27 06:51:23;;;;;;;20.92;5.05;;;;;;;;;;5038243;28;20037;-77
2021/08/27 06:53:53;;;;;;;9.23;2.58;;;;;;;;;;5036767;28;20029;-76
2021/08/27 06:56:21;;;;;;;13.57;2.90;;;;;;;;;;5053184;28;20510;-76
2021/08/27 06:58:51;;;;;;;9.82;2.75;;;;;;;;;;5037205;28;20478;-77
2021/08/27 07:01:22;;;;;;;12.70;2.92;;;;;;;;;;5038930;28;20068;-77
2021/08/27 07:03:47;;;;;;;9.55;3.13;;;;;;;;;;5056594;28;20025;-76
2021/08/27 07:06:13;;;;;;;12.55;3.67;;;;;;;;;;5037503;28;20509;-76
2021/08/27 07:08:41;;;;;;;6.78;2.30;;;;;;;;;;5054406;28;20086;-78
2021/08/27 07:11:06;;;;;;;5.90;2.42;;;;;;;;;;5055514;28;20123;-77
2021/08/27 07:13:34;;;;;;;14.55;3.92;;;;;;;;;;5054925;28;20471;-76
2021/08/27 07:15:59;;;;;;;11.07;2.97;;;;;;;;;;5049479;28;20407;-77
2021/08/27 07:18:26;;;;;;;10.90;2.63;;;;;;;;;;5034758;28;20029;-77
2021/08/27 07:20:52;;;;;;;11.13;2.30;;;;;;;;;;5034180;28;20238;-76
2021/08/27 07:23:18;;;;;;;8.98;3.22;;;;;;;;;;5017520;28;20139;-77
2021/08/27 07:25:43;;;;;;;6.40;3.33;;;;;;;;;;5036063;28;20135;-77
2021/08/27 07:28:11;;;;;;;9.75;3.28;;;;;;;;;;5033769;28;20116;-76
2021/08/27 07:30:39;;;;;;;6.10;2.60;;;;;;;;;;5034752;28;20498;-76
2021/08/27 07:33:07;;;;;;;9.20;2.67;;;;;;;;;;5033508;28;20045;-77
2021/08/27 07:35:32;;;;;;;7.50;2.60;;;;;;;;;;5035063;28;20041;-77
2021/08/27 07:37:58;;;;;;;7.38;2.20;;;;;;;;;;5034028;28;20040;-76
2021/08/27 07:40:24;;;;;;;6.38;2.60;;;;;;;;;;5043484;28;20482;-76
2021/08/27 07:42:51;;;;;;;6.05;2.33;;;;;;;;;;5053611;28;20040;-76
2021/08/27 07:45:16;;;;;;;7.43;2.47;;;;;;;;;;5039501;28;20086;-79
2021/08/27 07:47:43;;;;;;;11.38;2.38;;;;;;;;;;5041461;28;20041;-79
2021/08/27 07:50:09;;;;;;;7.07;2.08;;;;;;;;;;5038059;28;20033;-75
2021/08/27 07:52:37;;;;;;;6.90;2.40;;;;;;;;;;5052855;28;20063;-77
2021/08/27 07:55:06;;;;;;;6.25;2.22;;;;;;;;;;5035749;28;20033;-77
2021/08/27 07:57:33;;;;;;;4.75;1.85;;;;;;;;;;5036484;28;20451;-76
2021/08/27 08:00:01;;;;;;;6.70;2.10;;;;;;;;;;5057099;28;20068;-81
2021/08/27 08:02:30;;;;;;;7.00;2.40;;;;;;;;;;5065489;28;20032;-78
2021/08/27 08:04:57;;;;;;;4.53;1.73;;;;;;;;;;5063523;28;20090;-80
2021/08/27 08:07:23;;;;;;;6.22;2.35;;;;;;;;;;5046547;28;20037;-78
2021/08/27 08:09:50;;;;;;;5.65;2.10;;;;;;;;;;5041096;28;20490;-76
2021/08/27 08:12:16;;;;;;;8.40;2.08;;;;;;;;;;5055678;28;20036;-76
2021/08/27 08:14:41;;;;;;;10.95;2.92;;;;;;;;;;5055346;28;20044;-76
2021/08/27 08:17:08;;;;;;;9.30;2.53;;;;;;;;;;5071936;28;20471;-76
2021/08/27 08:19:34;;;;;;;8.20;2.40;;;;;;;;;;5060705;28;20469;-80
2021/08/27 08:22:00;;;;;;;7.45;2.30;;;;;;;;;;5058340;28;20035;-75
2021/08/27 08:24:26;;;;;;;6.43;1.80;;;;;;;;;;5074135;28;20028;-77
2021/08/27 08:26:58;;;;;;;7.13;2.53;;;;;;;;;;5073645;28;20430;-77
2021/08/27 08:29:23;;;;;;;6.80;2.42;;;;;;;;;;5073471;28;20032;-77
2021/08/27 08:31:52;;;;;;;8.77;2.08;;;;;;;;;;5057121;28;20093;-78
2021/08/27 08:34:18;;;;;;;5.13;2.13;;;;;;;;;;5077838;28;20045;-79
2021/08/27 08:36:44;;;;;;;6.10;2.17;;;;;;;;;;5056811;28;20039;-76
2021/08/27 08:39:10;;;;;;;6.70;2.05;;;;;;;;;;5045168;28;20037;-77
2021/08/27 08:41:35;;;;;;;9.13;2.20;;;;;;;;;;5053495;28;20450;-76
2021/08/27 08:44:01;;;;;;;6.22;2.03;;;;;;;;;;5057597;28;20040;-78
2021/08/27 08:46:28;;;;;;;4.13;1.73;;;;;;;;;;5058375;28;20068;-79
2021/08/27 08:48:54;;;;;;;6.13;2.03;;;;;;;;;;5040988;28;20064;-79
2021/08/27 08:51:24;;;;;;;5.85;2.50;;;;;;;;;;5041483;28;20036;-80
2021/08/27 08:53:53;;;;;;;6.15;2.58;;;;;;;;;;5057264;28;20029;-77
2021/08/27 08:56:20;;;;;;;9.20;2.30;;;;;;;;;;5055821;28;20048;-79
2021/08/27 08:58:46;;;;;;;8.80;2.15;;;;;;;;;;5045931;28;20033;-78
2021/08/27 09:01:17;;;;;;;9.65;2.05;;;;;;;;;;5058425;28;20045;-77
2021/08/27 09:03:47;;;;;;;9.88;2.28;;;;;;;;;;5036364;28;20406;-76
2021/08/27 09:06:14;;;;;;;4.93;2.00;;;;;;;;;;5037964;28;20025;-76
2021/08/27 09:08:47;;;;;;;5.70;2.00;;;;;;;;;;5028554;28;20022;-76
2021/08/27 09:11:17;;;;;;;5.82;2.33;;;;;;;;;;5037344;28;20037;-76
2021/08/27 09:13:43;;;;;;;3.78;2.20;;;;;;;;;;5019934;28;20032;-76
2021/08/27 09:16:10;;;;;;;8.15;2.35;;;;;;;;;;5035865;28;20034;-76
2021/08/27 09:18:46;;;;;;;5.15;1.90;;;;;;;;;;5035196;28;20080;-76
2021/08/27 09:21:36;;;;;;;8.40;3.03;;;;;;;;;;5035801;28;20037;-76
2021/08/27 09:24:18;;;;;;;6.40;2.00;;;;;;;;;;5036667;28;20047;-76
2021/08/27 09:26:50;;;;;;;5.15;1.83;;;;;;;;;;5041133;28;20116;-77
2021/08/27 09:29:31;;;;;;;5.65;2.22;;;;;;;;;;5040705;28;20037;-77
2021/08/27 09:31:57;;;;;;;9.73;2.42;;;;;;;;;;5042054;28;20136;-78
2021/08/27 09:34:33;;;;;;;6.97;1.63;;;;;;;;;;5024116;28;20065;-78
2021/08/27 09:36:59;;;;;;;;;;;;;;;;;;5027543;28;20029;-80
2021/08/27 09:39:34;;;;;;;5.57;1.85;;;;;;;;;;5047441;28;19912;-78
2021/08/27 09:42:01;;;;;;;6.22;2.15;;;;;;;;;;5065320;28;20041;-81
2021/08/27 09:44:26;;;;;;;5.70;2.05;;;;;;;;;;5046085;28;20029;-82
2021/08/27 09:46:52;;;;;;;5.38;2.08;;;;;;;;;;5062228;28;20091;-83
2021/08/27 09:49:34;;;;;;;3.72;1.90;;;;;;;;;;5047173;28;20041;-84
2021/08/27 09:52:01;;;;;;;6.13;2.20;;;;;;;;;;5048431;28;20037;-83
2021/08/27 09:54:33;;;;;;;6.22;2.33;;;;;;;;;;5065716;28;20025;-82
2021/08/27 09:57:00;;;;;;;6.05;2.47;;;;;;;;;;5049893;28;20036;-80
2021/08/27 09:59:38;;;;;;;5.43;2.22;;;;;;;;;;5066450;28;20017;-84
2021/08/27 10:02:06;;;;;;;6.72;2.53;;;;;;;;;;5063484;28;20032;-85
2021/08/27 10:04:33;;;;;;;5.30;2.30;;;;;;;;;;5046407;28;20029;-83
2021/08/27 10:06:59;;;;;;;6.68;2.55;;;;;;;;;;5063390;28;20040;-82
2021/08/27 10:09:45;;;;;;;8.02;2.10;;;;;;;;;;5065684;28;20394;-83
2021/08/27 10:12:15;;;;;;;6.15;2.17;;;;;;;;;;5064514;28;20047;-84
2021/08/27 10:14:41;;;;;;;6.88;2.35;;;;;;;;;;5079903;28;20041;-84
2021/08/27 10:17:08;;;;;;;10.95;3.50;;;;;;;;;;5061530;28;20043;-84
2021/08/27 10:19:33;;;;;;;4.60;1.75;;;;;;;;;;5063659;28;20060;-84
2021/08/27 10:21:59;;;;;;;8.35;2.38;;;;;;;;;;5084436;28;20035;-83
2021/08/27 10:24:24;;;;;;;5.93;2.20;;;;;;;;;;5081328;28;20038;-83
2021/08/27 10:26:54;;;;;;;7.53;2.25;;;;;;;;;;5080798;28;20047;-83
2021/08/27 10:29:20;;;;;;;6.07;2.15;;;;;;;;;;5067831;28;20050;-81
2021/08/27 10:31:48;;;;;;;4.18;2.05;;;;;;;;;;5078496;28;20543;-77
2021/08/27 10:34:16;;;;;;;7.57;2.42;;;;;;;;;;5076053;28;20028;-77
2021/08/27 10:36:49;;;;;;;6.47;1.80;;;;;;;;;;5076478;28;20127;-80
2021/08/27 10:39:32;;;;;;;4.53;1.85;;;;;;;;;;5041023;28;20037;-75
2021/08/27 10:41:57;;;;;;;5.13;2.40;;;;;;;;;;5060612;28;20041;-80
2021/08/27 10:44:45;;;;;;;4.30;1.75;;;;;;;;;;5044284;28;20215;-83
2021/08/27 10:47:12;;;;;;;4.03;1.50;;;;;;;;;;5057160;28;20036;-80
2021/08/27 10:49:46;;;;;;;3.50;1.65;;;;;;;;;;5045235;28;20170;-83
2021/08/27 10:52:35;;;;;;;11.20;2.22;;;;;;;;;;5046489;28;20454;-83
2021/08/27 10:55:08;;;;;;;7.65;2.17;;;;;;;;;;5065999;28;20045;-81
2021/08/27 10:57:54;;;;;;;5.80;1.60;;;;;;;;;;5052773;28;20033;-82
2021/08/27 11:00:34;;;;;;;6.68;1.63;;;;;;;;;;5041441;28;20131;-82
2021/08/27 11:03:00;;;;;;;4.80;1.80;;;;;;;;;;5057183;28;20037;-81
2021/08/27 11:05:31;;;;;;;7.82;2.00;;;;;;;;;;5040530;28;20118;-83
2021/08/27 11:08:01;;;;;;;7.38;2.05;;;;;;;;;;5039436;28;20039;-83
2021/08/27 11:10:27;;;;;;;5.05;1.88;;;;;;;;;;5036374;28;20104;-81
2021/08/27 11:13:06;;;;;;;6.32;1.90;;;;;;;;;;5053260;28;20079;-81
2021/08/27 11:15:31;;;;;;;5.00;1.70;;;;;;;;;;5035576;28;20041;-77
2021/08/27 11:18:20;;;;;;;5.18;1.90;;;;;;;;;;5036144;28;20460;-81
2021/08/27 11:20:47;;;;;;;7.90;2.38;;;;;;;;;;5052689;28;20037;-76
2021/08/27 11:23:16;;;;;;;7.13;2.20;;;;;;;;;;5035747;28;20114;-81
2021/08/27 11:26:00;;;;;;;6.25;1.95;;;;;;;;;;5019694;28;20044;-79
2021/08/27 11:28:27;;;;;;;8.95;2.35;;;;;;;;;;5017776;28;20033;-78
2021/08/27 11:31:03;;;;;;;7.72;2.67;;;;;;;;;;5034429;28;20041;-85
2021/08/27 11:33:41;;;;;;;6.78;2.35;;;;;;;;;;5035930;28;20033;-83
2021/08/27 11:36:07;;;;;;;10.15;2.88;;;;;;;;;;5052894;28;20196;-78
2021/08/27 11:38:34;;;;;;;7.15;2.05;;;;;;;;;;5054572;28;20036;-78
2021/08/27 11:41:00;;;;;;;11.80;2.67;;;;;;;;;;5037609;28;20048;-77
2021/08/27 11:43:43;;;;;;;5.35;1.90;;;;;;;;;;5037279;28;20040;-77
2021/08/27 11:46:22;;;;;;;5.40;1.90;;;;;;;;;;5056805;28;20037;-78
2021/08/27 11:49:04;;;;;;;5.30;1.80;;;;;;;;;;5039221;28;20401;-78
2021/08/27 11:51:35;;;;;;;7.13;1.75;;;;;;;;;;5053243;28;20123;-78
2021/08/27 11:54:19;;;;;;;5.90;1.38;;;;;;;;;;5055065;28;20402;-79
2021/08/27 11:56:53;;;;;;;7.45;1.75;;;;;;;;;;5038777;28;20490;-78
2021/08/27 11:59:26;;;;;;;2.58;1.20;;;;;;;;;;5054291;28;20036;-78
2021/08/27 12:01:53;;;;;;;4.72;1.77;;;;;;;;;;5055666;28;20051;-80
2021/08/27 12:04:30;;;;;;;5.82;1.42;;;;;;;;;;5053598;28;20029;-76
2021/08/27 12:07:12;;;;;;;2.60;1.10;;;;;;;;;;5053866;28;20132;-76
2021/08/27 12:09:38;;;;;;;2.33;0.95;;;;;;;;;;5039962;28;20037;-78
2021/08/27 12:12:05;;;;;;;6.28;1.63;;;;;;;;;;5045673;28;20048;-80
2021/08/27 12:14:51;;;;;;;3.03;1.08;;;;;;;;;;5046711;28;20031;-80
2021/08/27 12:17:37;;;;;;;2.58;1.13;;;;;;;;;;5047676;28;20033;-80
2021/08/27 12:20:07;;;;;;;2.38;1.25;;;;;;;;;;5063099;28;20052;-80
2021/08/27 12:22:39;;;;;;;4.47;1.50;;;;;;;;;;5063013;28;20086;-83
2021/08/27 12:25:05;;;;;;;2.40;1.20;;;;;;;;;;5059604;28;20075;-81
2021/08/27 12:27:30;;;;;;;2.53;1.08;;;;;;;;;;5041021;28;20025;-80
2021/08/27 12:30:06;;;;;;;2.20;1.20;;;;;;;;;;5044038;28;20047;-83
2021/08/27 12:32:32;;;;;;;3.25;1.33;;;;;;;;;;5059360;28;20084;-83
2021/08/27 12:34:59;;;;;;;2.83;1.05;;;;;;;;;;5042272;28;20040;-83
2021/08/27 12:37:25;;;;;;;0.77;0.70;;;;;;;;;;5041048;28;20025;-82
2021/08/27 12:39:51;;;;;;;2.25;1.00;;;;;;;;;;5044743;28;20087;-82
2021/08/27 12:42:20;;;;;;;1.73;0.75;;;;;;;;;;5039478;28;20467;-83
2021/08/27 12:44:56;;;;;;;3.03;0.57;;;;;;;;;;5021153;28;20041;-82
2021/08/27 12:47:52;;;;;;;1.20;0.50;;;;;;;;;;5037091;28;20033;-83
2021/08/27 12:50:17;;;;;;;1.38;0.55;;;;;;;;;;5037071;28;20069;-82
2021/08/27 12:53:04;;;;;;;1.15;0.80;;;;;;;;;;5037673;28;20029;-82
2021/08/27 12:55:33;;;;;;;;;;;;;;;;;;5037799;28;20041;-81
2021/08/27 12:58:02;;;;;;;0.60;0.55;;;;;;;;;;5021775;28;19913;-82
2021/08/27 13:00:32;;;;;;;0.98;0.60;;;;;;;;;;5020953;28;20034;-81
2021/08/27 13:03:12;;;;;;;5.75;0.60;;;;;;;;;;5021738;28;20033;-82
2021/08/27 13:05:42;;;;;;;0.82;0.47;;;;;;;;;;5021614;28;20403;-82
2021/08/27 13:08:13;;;;;;;0.65;0.20;;;;;;;;;;5021583;28;20045;-82
2021/08/27 13:10:57;;;;;;;0.45;0.45;;;;;;;;;;5061226;28;20064;-82
2021/08/27 13:13:24;;;;;;;0.82;0.40;;;;;;;;;;5060505;28;20040;-82
2021/08/27 13:16:08;;;;;;;1.13;0.55;;;;;;;;;;5060554;28;20046;-82
2021/08/27 13:18:45;;;;;;;0.55;0.38;;;;;;;;;;5060490;28;20037;-82
2021/08/27 13:21:12;;;;;;;0.50;0.50;;;;;;;;;;5061078;28;20486;-82
2021/08/27 13:23:39;;;;;;;0.20;0.20;;;;;;;;;;5060329;28;20033;-82
2021/08/27 13:26:08;;;;;;;3.28;1.30;;;;;;;;;;5076740;28;20383;-82
2021/08/27 13:28:36;;;;;;;1.42;0.52;;;;;;;;;;5060127;28;20509;-82
2021/08/27 13:31:03;;;;;;;3.53;0.50;;;;;;;;;;5060066;28;20108;-81
2021/08/27 13:33:28;;;;;;;1.05;0.57;;;;;;;;;;5059885;28;20067;-82
2021/08/27 13:35:56;;;;;;;0.50;0.43;;;;;;;;;;5076501;28;20033;-82
2021/08/27 13:38:21;;;;;;;0.60;0.50;;;;;;;;;;5075386;28;20044;-81
2021/08/27 13:40:47;;;;;;;3.97;0.63;;;;;;;;;;5039262;28;20033;-81
2021/08/27 13:43:14;;;;;;;2.00;0.70;;;;;;;;;;5057491;28;20485;-79
2021/08/27 13:45:40;;;;;;;0.40;0.40;;;;;;;;;;5039071;28;20075;-82
2021/08/27 13:48:08;;;;;;;0.90;0.60;;;;;;;;;;5057091;28;20045;-83
2021/08/27 13:50:33;;;;;;;0.73;0.35;;;;;;;;;;5042327;28;20505;-83
2021/08/27 13:53:00;;;;;;;0.55;0.52;;;;;;;;;;5062596;28;20028;-84
2021/08/27 13:55:25;;;;;;;1.75;0.80;;;;;;;;;;5063006;28;20094;-84
2021/08/27 13:57:51;;;;;;;0.63;0.60;;;;;;;;;;5062220;28;20590;-84
2021/08/27 14:00:19;;;;;;;0.80;0.52;;;;;;;;;;5046039;28;20541;-84
2021/08/27 14:02:46;;;;;;;1.25;0.68;;;;;;;;;;5045900;28;20025;-84
2021/08/27 14:05:14;;;;;;;1.50;0.60;;;;;;;;;;5046030;28;20040;-83
2021/08/27 14:07:42;;;;;;;0.90;0.63;;;;;;;;;;5045268;28;20506;-83
2021/08/27 14:10:09;;;;;;;1.23;0.65;;;;;;;;;;5029991;28;20041;-83
2021/08/27 14:12:37;;;;;;;1.10;0.65;;;;;;;;;;5041855;28;20041;-82
2021/08/27 14:15:03;;;;;;;1.20;0.60;;;;;;;;;;5024664;28;20047;-82
2021/08/27 14:17:31;;;;;;;1.50;0.45;;;;;;;;;;5024208;28;20430;-82
2021/08/27 14:19:56;;;;;;;1.17;0.63;;;;;;;;;;5024665;28;20067;-83
2021/08/27 14:22:22;;;;;;;2.63;1.15;;;;;;;;;;5040547;28;20041;-81
2021/08/27 14:24:47;;;;;;;2.00;0.80;;;;;;;;;;5042036;28;20033;-81
2021/08/27 14:27:13;;;;;;;0.90;0.70;;;;;;;;;;5023706;28;20033;-82
2021/08/27 14:29:40;;;;;;;1.30;0.80;;;;;;;;;;5024582;28;20103;-81
2021/08/27 14:32:06;;;;;;;1.23;0.77;;;;;;;;;;5024905;28;20049;-80
2021/08/27 14:34:33;;;;;;;1.27;0.80;;;;;;;;;;5024827;28;20105;-83
2021/08/27 14:36:59;;;;;;;1.58;0.90;;;;;;;;;;5025943;28;20052;-82
2021/08/27 14:39:27;;;;;;;1.38;0.80;;;;;;;;;;5036079;28;20487;-83
2021/08/27 14:41:52;;;;;;;1.40;0.88;;;;;;;;;;5046736;28;20032;-81
2021/08/27 14:44:19;;;;;;;0.95;0.80;;;;;;;;;;5046660;28;20129;-79
2021/08/27 14:46:45;;;;;;;4.25;1.00;;;;;;;;;;5046554;28;20087;-79
2021/08/27 14:49:13;;;;;;;2.47;1.10;;;;;;;;;;5063573;28;20036;-77
2021/08/27 14:51:38;;;;;;;3.95;0.90;;;;;;;;;;5042574;28;20098;-79